Currently 63°F in Simi Valley, California, USA
63°F
72°F / 57°F
13 mph NE
0.00"
Friday, October 20, 2017 8:17 PM PDT

Simi Valley, California Climate Summary
Typical December Day

Normal High:    64.6°F (18.1°C)
Normal Low:    46.3°F (8.0°C)
Average:    55.1°F (12.8°C)

Hour    Temperature    Wind Speed    Humidity
12:00 AM    51°F (11°C)    4 mph    61%
1:00 AM    51°F (11°C)    4 mph    61%
2:00 AM    51°F (10°C)    4 mph    61%
3:00 AM    50°F (10°C)    4 mph    61%
4:00 AM    50°F (10°C)    4 mph    62%
5:00 AM    50°F (10°C)    5 mph    62%
6:00 AM    50°F (10°C)    5 mph    62%
7:00 AM    50°F (10°C)    5 mph    61%
8:00 AM    51°F (11°C)    5 mph    61%
9:00 AM    55°F (13°C)    5 mph    57%
10:00 AM    58°F (15°C)    6 mph    52%
11:00 AM    61°F (16°C)    6 mph    48%
12:00 PM    63°F (17°C)    6 mph    45%
1:00 PM    64°F (18°C)    6 mph    43%
2:00 PM    64°F (18°C)    6 mph    43%
3:00 PM    63°F (17°C)    6 mph    44%
4:00 PM    62°F (16°C)    5 mph    48%
5:00 PM    59°F (15°C)    4 mph    52%
6:00 PM    57°F (14°C)    4 mph    55%
7:00 PM    55°F (13°C)    4 mph    57%
8:00 PM    54°F (12°C)    4 mph    58%
9:00 PM    53°F (12°C)    4 mph    59%
10:00 PM    52°F (11°C)    4 mph    60%
11:00 PM    52°F (11°C)    4 mph    60%
 

The Simi Valley, California weather pages are a service of WeatherCurrents.
Copyright ©Fri Oct 20 20:18:45 PDT 2017  WeatherCurrents. All rights reserved. - Submit questions and comments - Privacy Policy